createdAt,value
2018-10-21T00:00:26.419Z,9.27
2018-10-21T00:05:30.177Z,6.73
2018-10-21T00:10:33.919Z,7.80
2018-10-21T00:15:37.769Z,12.50
2018-10-21T00:20:41.364Z,9.33
2018-10-21T00:25:45.073Z,8.87
2018-10-21T00:30:48.811Z,10.37
2018-10-21T00:35:52.559Z,9.87
2018-10-21T00:40:56.463Z,8.80
2018-10-21T00:46:00.199Z,8.83
2018-10-21T00:51:04.201Z,10.53
2018-10-21T00:56:07.935Z,6.63
2018-10-21T01:01:11.656Z,6.00
2018-10-21T01:06:15.387Z,7.33
2018-10-21T01:11:19.188Z,9.27
2018-10-21T01:16:23.162Z,8.60
2018-10-21T01:21:26.860Z,8.77
2018-10-21T01:26:30.589Z,11.00
2018-10-21T01:31:34.327Z,11.00
2018-10-21T01:36:38.229Z,12.93
2018-10-21T01:41:41.856Z,8.23
2018-10-21T01:46:45.660Z,11.10
2018-10-21T01:51:49.388Z,15.00
2018-10-21T01:56:53.110Z,9.77
2018-10-21T02:01:56.816Z,16.03
2018-10-21T02:07:00.531Z,9.43
2018-10-21T02:12:04.296Z,9.20
2018-10-21T02:17:08.043Z,11.47
2018-10-21T02:22:11.780Z,12.00
2018-10-21T02:27:15.590Z,12.53
2018-10-21T02:32:19.277Z,9.40
2018-10-21T02:37:23.110Z,10.60
2018-10-21T02:42:26.831Z,12.00
2018-10-21T02:47:30.588Z,11.80
2018-10-21T02:52:34.320Z,10.83
2018-10-21T02:57:38.051Z,13.00
2018-10-21T03:02:41.879Z,11.17
2018-10-21T03:07:45.612Z,14.30
2018-10-21T03:12:49.315Z,12.97
2018-10-21T03:17:53.052Z,13.00
2018-10-21T03:22:56.800Z,10.83
2018-10-21T03:28:00.531Z,9.40
2018-10-21T03:33:04.264Z,8.47
2018-10-21T03:38:07.999Z,17.13
2018-10-21T03:43:11.747Z,13.97
2018-10-21T03:48:15.447Z,9.80
2018-10-21T03:53:19.179Z,19.93
2018-10-21T03:58:22.915Z,16.10
2018-10-21T04:03:26.635Z,10.37
2018-10-21T04:08:30.351Z,14.37
2018-10-21T04:13:34.079Z,16.70
2018-10-21T04:18:37.805Z,14.37
2018-10-21T04:23:41.532Z,10.20
2018-10-21T04:28:45.261Z,11.07
2018-10-21T04:33:48.982Z,11.23
2018-10-21T04:40:09.445Z,9.50
2018-10-21T04:45:14.571Z,11.33
2018-10-21T04:50:18.357Z,12.77
2018-10-21T04:55:22.071Z,12.70
2018-10-21T05:00:25.827Z,12.87
2018-10-21T05:05:29.555Z,13.53
2018-10-21T05:10:39.922Z,15.00
2018-10-21T05:15:43.651Z,13.83
2018-10-21T05:20:47.387Z,13.20
2018-10-21T05:25:51.135Z,17.83
2018-10-21T05:30:54.856Z,14.57
2018-10-21T05:35:58.603Z,15.93
2018-10-21T05:41:02.443Z,16.60
2018-10-21T05:46:06.289Z,10.10
2018-10-21T05:51:10.044Z,11.83
2018-10-21T05:56:13.779Z,11.53
2018-10-21T06:01:17.527Z,16.70
2018-10-21T06:06:21.311Z,12.17
2018-10-21T06:11:25.028Z,19.93
2018-10-21T06:16:31.070Z,21.30
2018-10-21T06:21:34.998Z,24.10
2018-10-21T06:26:38.731Z,16.93
2018-10-21T06:31:42.552Z,16.40
2018-10-21T06:36:46.379Z,13.20
2018-10-21T06:41:50.065Z,25.23
2018-10-21T06:46:53.853Z,15.77
2018-10-21T06:51:57.593Z,15.53
2018-10-21T06:57:01.491Z,19.47
2018-10-21T07:02:05.259Z,13.40
2018-10-21T07:07:08.975Z,14.80
2018-10-21T07:12:12.790Z,16.90
2018-10-21T07:17:16.531Z,13.07
2018-10-21T07:22:20.328Z,14.73
2018-10-21T07:27:24.089Z,24.73
2018-10-21T07:32:27.820Z,26.93
2018-10-21T07:37:31.615Z,33.03
2018-10-21T07:42:35.354Z,22.17
2018-10-21T07:47:39.111Z,21.07
2018-10-21T07:52:42.848Z,29.13
2018-10-21T07:57:47.243Z,30.57
2018-10-21T08:02:50.975Z,15.60
2018-10-21T08:08:19.460Z,40.93
2018-10-21T08:13:24.513Z,22.17
2018-10-21T08:18:28.254Z,45.37
2018-10-21T08:23:31.979Z,32.50
2018-10-21T08:28:35.720Z,28.30
2018-10-21T08:33:39.464Z,34.13
2018-10-21T08:38:43.279Z,25.17
2018-10-21T08:43:47.024Z,49.77
2018-10-21T08:48:50.747Z,51.27
2018-10-21T08:53:54.579Z,34.07
2018-10-21T08:58:58.936Z,49.23
2018-10-21T09:04:02.689Z,32.83
2018-10-21T09:09:08.046Z,38.63
2018-10-21T09:14:12.340Z,35.37
2018-10-21T09:19:16.184Z,30.13
2018-10-21T09:24:19.936Z,32.23
2018-10-21T09:29:23.820Z,37.80
2018-10-21T09:34:27.565Z,34.27
2018-10-21T09:39:31.318Z,31.00
2018-10-21T09:44:35.068Z,32.97
2018-10-21T09:49:38.779Z,32.43
2018-10-21T09:54:42.516Z,41.17
2018-10-21T09:59:46.248Z,47.97
2018-10-21T10:04:49.975Z,48.47
2018-10-21T10:09:53.858Z,48.17
2018-10-21T10:14:57.543Z,27.00
2018-10-21T10:20:01.302Z,37.53
2018-10-21T10:25:06.146Z,42.63
2018-10-21T10:30:11.939Z,31.60
2018-10-21T10:35:15.669Z,22.37
2018-10-21T10:40:19.495Z,39.27
2018-10-21T10:45:23.123Z,29.47
2018-10-21T10:50:26.894Z,21.47
2018-10-21T10:55:35.984Z,19.10
2018-10-21T11:00:39.725Z,29.97
2018-10-21T11:05:43.499Z,28.57
2018-10-21T11:10:47.231Z,17.20
2018-10-21T11:15:51.023Z,22.67
2018-10-21T11:20:54.727Z,14.90
2018-10-21T11:25:58.455Z,19.80
2018-10-21T11:31:02.203Z,15.00
2018-10-21T11:36:05.901Z,14.57
2018-10-21T11:41:09.635Z,16.27
2018-10-21T11:46:13.493Z,16.07
2018-10-21T11:51:17.077Z,19.40
2018-10-21T11:56:20.805Z,18.33
2018-10-21T12:01:24.625Z,10.93
2018-10-21T12:06:28.518Z,8.03
2018-10-21T12:11:32.200Z,9.20
2018-10-21T12:16:36.012Z,10.53
2018-10-21T12:21:39.763Z,11.77
2018-10-21T12:26:43.547Z,7.20
2018-10-21T12:31:47.377Z,9.30
2018-10-21T12:36:51.196Z,11.03
2018-10-21T12:41:54.936Z,11.13
2018-10-21T12:46:58.703Z,9.30
2018-10-21T12:52:02.458Z,13.23
2018-10-21T12:57:06.146Z,13.23
2018-10-21T13:02:10.055Z,9.30
2018-10-21T13:07:13.810Z,8.03
2018-10-21T13:12:17.536Z,5.90
2018-10-21T13:17:21.494Z,7.70
2018-10-21T13:22:25.206Z,4.77
2018-10-21T13:27:28.915Z,9.30
2018-10-21T13:32:32.631Z,4.23
2018-10-21T13:37:36.351Z,6.50
2018-10-21T13:42:40.088Z,6.80
2018-10-21T13:47:43.818Z,3.60
2018-10-21T13:52:47.531Z,5.17
2018-10-21T13:57:51.344Z,2.97
2018-10-21T14:02:55.091Z,3.50
2018-10-21T14:07:58.885Z,3.03
2018-10-21T14:13:02.610Z,3.13
2018-10-21T14:18:06.416Z,2.37
2018-10-21T14:23:10.139Z,3.43
2018-10-21T14:28:13.876Z,5.00
2018-10-21T14:33:17.651Z,2.73
2018-10-21T14:38:21.451Z,3.70
2018-10-21T14:43:25.119Z,2.83
2018-10-21T14:48:28.828Z,2.70
2018-10-21T14:53:32.551Z,2.70
2018-10-21T14:58:36.531Z,5.10
2018-10-21T15:03:40.248Z,2.60
2018-10-21T15:08:43.956Z,3.10
2018-10-21T15:13:47.680Z,3.83
2018-10-21T15:18:51.380Z,2.90
2018-10-21T15:23:55.107Z,2.83
2018-10-21T15:28:58.902Z,2.70
2018-10-21T15:34:02.744Z,3.63
2018-10-21T15:39:08.321Z,2.90
2018-10-21T15:44:12.159Z,2.57
2018-10-21T15:49:15.793Z,3.60
2018-10-21T15:54:19.575Z,2.50
2018-10-21T15:59:23.291Z,2.87
2018-10-21T16:04:27.000Z,6.60
2018-10-21T16:09:30.696Z,3.10
2018-10-21T16:14:34.512Z,5.30
2018-10-21T16:19:38.165Z,3.03
2018-10-21T16:24:41.904Z,2.67
2018-10-21T16:29:45.615Z,5.40
2018-10-21T16:34:49.396Z,6.87
2018-10-21T16:39:53.181Z,4.57
2018-10-21T16:44:57.174Z,3.77
2018-10-21T16:50:00.860Z,4.87
2018-10-21T16:55:05.562Z,5.90
2018-10-21T17:00:13.171Z,6.40
2018-10-21T17:05:16.873Z,7.90
2018-10-21T17:10:20.946Z,4.90
2018-10-21T17:15:24.318Z,4.70
2018-10-21T17:20:28.058Z,8.97
2018-10-21T17:25:31.795Z,4.17
2018-10-21T17:30:35.690Z,8.40
2018-10-21T17:35:39.345Z,10.50
2018-10-21T17:40:43.240Z,10.27
2018-10-21T17:45:46.914Z,11.03
2018-10-21T17:50:50.591Z,4.43
2018-10-21T17:55:54.297Z,7.27
2018-10-21T18:00:58.079Z,7.80
2018-10-21T18:06:01.896Z,6.57
2018-10-21T18:11:06.679Z,7.20
2018-10-21T18:16:10.495Z,7.47
2018-10-21T18:21:14.183Z,5.47
2018-10-21T18:26:17.916Z,4.73
2018-10-21T18:31:21.680Z,4.73
2018-10-21T18:36:25.384Z,4.40
2018-10-21T18:41:29.091Z,8.97
2018-10-21T18:46:32.894Z,7.13
2018-10-21T18:51:36.568Z,9.47
2018-10-21T18:56:40.308Z,12.63
2018-10-21T19:01:44.059Z,12.00
2018-10-21T19:06:47.779Z,9.13
2018-10-21T19:11:51.527Z,10.63
2018-10-21T19:16:55.263Z,9.27
2018-10-21T19:21:59.045Z,7.73
2018-10-21T19:27:02.785Z,5.70
2018-10-21T19:32:06.500Z,8.03
2018-10-21T19:37:10.265Z,7.37
2018-10-21T19:42:13.902Z,10.57
2018-10-21T19:47:17.630Z,8.43
2018-10-21T19:52:21.331Z,7.23
2018-10-21T19:57:25.303Z,10.73
2018-10-21T20:02:29.310Z,6.57
2018-10-21T20:07:33.112Z,8.80
2018-10-21T20:12:37.075Z,9.63
2018-10-21T20:17:41.007Z,13.57
2018-10-21T20:22:44.761Z,7.30
2018-10-21T20:27:48.488Z,11.83
2018-10-21T20:32:52.347Z,7.50
2018-10-21T20:37:55.938Z,5.73
2018-10-21T20:42:59.655Z,7.00
2018-10-21T20:48:03.491Z,6.63
2018-10-21T20:53:07.273Z,10.77
2018-10-21T20:58:11.006Z,9.90
2018-10-21T21:03:14.726Z,4.70
2018-10-21T21:08:18.494Z,5.00
2018-10-21T21:13:22.202Z,4.30
2018-10-21T21:18:25.951Z,4.77
2018-10-21T21:23:29.771Z,5.07
2018-10-21T21:28:33.476Z,5.63
2018-10-21T21:33:37.200Z,7.30
2018-10-21T21:38:41.032Z,4.80
2018-10-21T21:43:44.759Z,4.67
2018-10-21T21:48:49.078Z,5.50
2018-10-21T21:53:52.944Z,3.80
2018-10-21T21:58:56.862Z,5.57
2018-10-21T22:04:00.704Z,4.83
2018-10-21T22:09:09.856Z,6.57
2018-10-21T22:14:13.599Z,4.70
2018-10-21T22:19:17.335Z,8.53
2018-10-21T22:24:21.056Z,7.00
2018-10-21T22:29:24.784Z,4.30
2018-10-21T22:34:28.514Z,3.63
2018-10-21T22:39:32.208Z,7.80
2018-10-21T22:44:35.931Z,3.90
2018-10-21T22:49:39.639Z,4.63
2018-10-21T22:54:43.359Z,4.17
2018-10-21T22:59:48.521Z,7.20
2018-10-21T23:04:52.233Z,4.47
2018-10-21T23:09:55.955Z,6.00
2018-10-21T23:14:59.656Z,6.00
2018-10-21T23:20:03.369Z,5.17
2018-10-21T23:25:07.389Z,5.40
2018-10-21T23:30:11.143Z,6.97
2018-10-21T23:35:14.821Z,6.80
2018-10-21T23:40:18.640Z,8.10
2018-10-21T23:45:22.269Z,7.43
2018-10-21T23:50:25.983Z,8.07
2018-10-21T23:55:29.700Z,7.70
